sensor_id;sensor_type;location;lat;lon;timestamp;P1;durP1;ratioP1;P2;durP2;ratioP2
45944;SDS011;31655;48.972;10.686;2022-08-21T00:00:54;29.25;;;19.50;;
45944;SDS011;31655;48.972;10.686;2022-08-21T00:03:19;30.13;;;18.40;;
45944;SDS011;31655;48.972;10.686;2022-08-21T00:05:46;25.83;;;19.08;;
45944;SDS011;31655;48.972;10.686;2022-08-21T00:08:17;27.45;;;18.92;;
45944;SDS011;31655;48.972;10.686;2022-08-21T00:10:44;28.67;;;17.58;;
45944;SDS011;31655;48.972;10.686;2022-08-21T00:13:10;24.80;;;17.65;;
45944;SDS011;31655;48.972;10.686;2022-08-21T00:15:37;20.92;;;14.93;;
45944;SDS011;31655;48.972;10.686;2022-08-21T00:18:05;25.55;;;15.48;;
45944;SDS011;31655;48.972;10.686;2022-08-21T00:20:32;21.60;;;15.27;;
45944;SDS011;31655;48.972;10.686;2022-08-21T00:22:59;21.63;;;13.98;;
45944;SDS011;31655;48.972;10.686;2022-08-21T00:25:25;17.92;;;13.52;;
45944;SDS011;31655;48.972;10.686;2022-08-21T00:27:51;17.15;;;12.23;;
45944;SDS011;31655;48.972;10.686;2022-08-21T00:30:17;17.13;;;11.80;;
45944;SDS011;31655;48.972;10.686;2022-08-21T00:32:44;18.50;;;13.10;;
45944;SDS011;31655;48.972;10.686;2022-08-21T00:35:11;14.00;;;11.55;;
45944;SDS011;31655;48.972;10.686;2022-08-21T00:37:39;15.57;;;11.27;;
45944;SDS011;31655;48.972;10.686;2022-08-21T00:40:06;15.32;;;12.55;;
45944;SDS011;31655;48.972;10.686;2022-08-21T00:42:34;17.08;;;11.65;;
45944;SDS011;31655;48.972;10.686;2022-08-21T00:45:00;15.25;;;10.18;;
45944;SDS011;31655;48.972;10.686;2022-08-21T00:47:26;13.05;;;9.95;;
45944;SDS011;31655;48.972;10.686;2022-08-21T00:49:52;12.95;;;9.88;;
45944;SDS011;31655;48.972;10.686;2022-08-21T00:52:22;13.95;;;10.68;;
45944;SDS011;31655;48.972;10.686;2022-08-21T00:54:55;12.60;;;9.50;;
45944;SDS011;31655;48.972;10.686;2022-08-21T00:57:28;12.90;;;9.45;;
45944;SDS011;31655;48.972;10.686;2022-08-21T00:59:58;12.30;;;10.05;;
45944;SDS011;31655;48.972;10.686;2022-08-21T01:02:26;12.07;;;9.23;;
45944;SDS011;31655;48.972;10.686;2022-08-21T01:04:52;16.20;;;10.75;;
45944;SDS011;31655;48.972;10.686;2022-08-21T01:07:18;9.95;;;8.52;;
45944;SDS011;31655;48.972;10.686;2022-08-21T01:09:45;10.40;;;9.30;;
45944;SDS011;31655;48.972;10.686;2022-08-21T01:12:11;11.02;;;9.43;;
45944;SDS011;31655;48.972;10.686;2022-08-21T01:14:37;12.90;;;9.48;;
45944;SDS011;31655;48.972;10.686;2022-08-21T01:17:05;11.48;;;9.48;;
45944;SDS011;31655;48.972;10.686;2022-08-21T01:19:31;12.40;;;9.98;;
45944;SDS011;31655;48.972;10.686;2022-08-21T01:21:57;14.00;;;10.60;;
45944;SDS011;31655;48.972;10.686;2022-08-21T01:24:24;13.10;;;10.45;;
45944;SDS011;31655;48.972;10.686;2022-08-21T01:26:50;13.32;;;9.63;;
45944;SDS011;31655;48.972;10.686;2022-08-21T01:29:22;13.55;;;9.00;;
45944;SDS011;31655;48.972;10.686;2022-08-21T01:31:57;14.32;;;10.10;;
45944;SDS011;31655;48.972;10.686;2022-08-21T01:34:25;13.63;;;10.68;;
45944;SDS011;31655;48.972;10.686;2022-08-21T01:36:51;10.60;;;9.57;;
45944;SDS011;31655;48.972;10.686;2022-08-21T01:39:17;9.57;;;8.50;;
45944;SDS011;31655;48.972;10.686;2022-08-21T01:41:42;12.77;;;9.65;;
45944;SDS011;31655;48.972;10.686;2022-08-21T01:44:08;11.10;;;8.43;;
45944;SDS011;31655;48.972;10.686;2022-08-21T01:46:34;14.95;;;10.10;;
45944;SDS011;31655;48.972;10.686;2022-08-21T01:49:00;12.05;;;9.55;;
45944;SDS011;31655;48.972;10.686;2022-08-21T01:51:25;14.63;;;8.73;;
45944;SDS011;31655;48.972;10.686;2022-08-21T01:53:51;10.65;;;8.13;;
45944;SDS011;31655;48.972;10.686;2022-08-21T01:56:20;9.38;;;8.32;;
45944;SDS011;31655;48.972;10.686;2022-08-21T01:58:46;20.95;;;9.73;;
45944;SDS011;31655;48.972;10.686;2022-08-21T02:01:12;13.07;;;9.60;;
45944;SDS011;31655;48.972;10.686;2022-08-21T02:03:40;10.80;;;9.45;;
45944;SDS011;31655;48.972;10.686;2022-08-21T02:06:06;13.00;;;7.93;;
45944;SDS011;31655;48.972;10.686;2022-08-21T02:08:36;8.32;;;7.50;;
45944;SDS011;31655;48.972;10.686;2022-08-21T02:11:02;9.02;;;7.30;;
45944;SDS011;31655;48.972;10.686;2022-08-21T02:13:28;13.05;;;7.82;;
45944;SDS011;31655;48.972;10.686;2022-08-21T02:15:53;8.13;;;7.30;;
45944;SDS011;31655;48.972;10.686;2022-08-21T02:18:19;7.85;;;7.18;;
45944;SDS011;31655;48.972;10.686;2022-08-21T02:20:47;12.25;;;8.60;;
45944;SDS011;31655;48.972;10.686;2022-08-21T02:23:13;12.45;;;8.60;;
45944;SDS011;31655;48.972;10.686;2022-08-21T02:25:40;11.77;;;9.02;;
45944;SDS011;31655;48.972;10.686;2022-08-21T02:28:07;14.63;;;10.27;;
45944;SDS011;31655;48.972;10.686;2022-08-21T02:30:36;11.50;;;9.02;;
45944;SDS011;31655;48.972;10.686;2022-08-21T02:33:04;15.43;;;9.25;;
45944;SDS011;31655;48.972;10.686;2022-08-21T02:35:31;12.30;;;10.10;;
45944;SDS011;31655;48.972;10.686;2022-08-21T02:37:59;10.07;;;8.63;;
45944;SDS011;31655;48.972;10.686;2022-08-21T02:40:27;13.13;;;9.25;;
45944;SDS011;31655;48.972;10.686;2022-08-21T02:42:55;12.23;;;9.18;;
45944;SDS011;31655;48.972;10.686;2022-08-21T02:45:22;18.00;;;11.05;;
45944;SDS011;31655;48.972;10.686;2022-08-21T02:47:55;12.88;;;9.70;;
45944;SDS011;31655;48.972;10.686;2022-08-21T02:50:28;14.85;;;9.98;;
45944;SDS011;31655;48.972;10.686;2022-08-21T02:52:56;11.18;;;9.00;;
45944;SDS011;31655;48.972;10.686;2022-08-21T02:55:23;11.25;;;8.70;;
45944;SDS011;31655;48.972;10.686;2022-08-21T02:57:51;9.05;;;8.15;;
45944;SDS011;31655;48.972;10.686;2022-08-21T03:00:18;11.20;;;9.38;;
45944;SDS011;31655;48.972;10.686;2022-08-21T03:02:45;13.35;;;10.88;;
45944;SDS011;31655;48.972;10.686;2022-08-21T03:05:12;57.67;;;27.63;;
45944;SDS011;31655;48.972;10.686;2022-08-21T03:07:39;29.33;;;17.75;;
45944;SDS011;31655;48.972;10.686;2022-08-21T03:10:06;14.02;;;9.65;;
45944;SDS011;31655;48.972;10.686;2022-08-21T03:12:33;10.18;;;8.07;;
45944;SDS011;31655;48.972;10.686;2022-08-21T03:15:00;9.02;;;7.20;;
45944;SDS011;31655;48.972;10.686;2022-08-21T03:17:27;10.05;;;7.65;;
45944;SDS011;31655;48.972;10.686;2022-08-21T03:19:52;7.80;;;7.03;;
45944;SDS011;31655;48.972;10.686;2022-08-21T03:22:18;8.23;;;7.43;;
45944;SDS011;31655;48.972;10.686;2022-08-21T03:24:43;9.05;;;7.05;;
45944;SDS011;31655;48.972;10.686;2022-08-21T03:27:10;9.30;;;7.90;;
45944;SDS011;31655;48.972;10.686;2022-08-21T03:29:37;24.75;;;15.18;;
45944;SDS011;31655;48.972;10.686;2022-08-21T03:32:03;15.32;;;11.85;;
45944;SDS011;31655;48.972;10.686;2022-08-21T03:34:29;11.73;;;8.15;;
45944;SDS011;31655;48.972;10.686;2022-08-21T03:36:54;9.10;;;7.50;;
45944;SDS011;31655;48.972;10.686;2022-08-21T03:39:21;9.65;;;8.25;;
45944;SDS011;31655;48.972;10.686;2022-08-21T03:41:46;9.13;;;8.23;;
45944;SDS011;31655;48.972;10.686;2022-08-21T03:44:12;9.95;;;7.65;;
45944;SDS011;31655;48.972;10.686;2022-08-21T03:46:38;12.00;;;9.15;;
45944;SDS011;31655;48.972;10.686;2022-08-21T03:49:05;12.25;;;9.25;;
45944;SDS011;31655;48.972;10.686;2022-08-21T03:51:31;9.70;;;8.70;;
45944;SDS011;31655;48.972;10.686;2022-08-21T03:53:58;10.75;;;8.25;;
45944;SDS011;31655;48.972;10.686;2022-08-21T03:56:24;10.98;;;8.70;;
45944;SDS011;31655;48.972;10.686;2022-08-21T03:58:50;9.35;;;8.05;;
45944;SDS011;31655;48.972;10.686;2022-08-21T04:01:16;9.32;;;7.40;;
45944;SDS011;31655;48.972;10.686;2022-08-21T04:03:41;11.15;;;8.40;;
45944;SDS011;31655;48.972;10.686;2022-08-21T04:06:07;8.63;;;7.00;;
45944;SDS011;31655;48.972;10.686;2022-08-21T04:08:33;7.70;;;6.70;;
45944;SDS011;31655;48.972;10.686;2022-08-21T04:11:00;10.48;;;8.35;;
45944;SDS011;31655;48.972;10.686;2022-08-21T04:13:26;8.15;;;7.28;;
45944;SDS011;31655;48.972;10.686;2022-08-21T04:15:53;9.85;;;7.53;;
45944;SDS011;31655;48.972;10.686;2022-08-21T04:18:19;9.85;;;7.68;;
45944;SDS011;31655;48.972;10.686;2022-08-21T04:20:46;8.98;;;7.95;;
45944;SDS011;31655;48.972;10.686;2022-08-21T04:23:17;15.00;;;9.20;;
45944;SDS011;31655;48.972;10.686;2022-08-21T04:25:43;12.20;;;8.75;;
45944;SDS011;31655;48.972;10.686;2022-08-21T04:28:09;10.85;;;8.00;;
45944;SDS011;31655;48.972;10.686;2022-08-21T04:30:35;13.60;;;9.40;;
45944;SDS011;31655;48.972;10.686;2022-08-21T04:33:00;10.85;;;8.88;;
45944;SDS011;31655;48.972;10.686;2022-08-21T04:35:28;14.38;;;10.00;;
45944;SDS011;31655;48.972;10.686;2022-08-21T04:37:55;11.77;;;10.05;;
45944;SDS011;31655;48.972;10.686;2022-08-21T04:40:21;14.20;;;10.13;;
45944;SDS011;31655;48.972;10.686;2022-08-21T04:42:52;14.35;;;10.82;;
45944;SDS011;31655;48.972;10.686;2022-08-21T04:45:25;16.27;;;10.60;;
45944;SDS011;31655;48.972;10.686;2022-08-21T04:47:57;14.18;;;10.48;;
45944;SDS011;31655;48.972;10.686;2022-08-21T04:50:31;18.50;;;11.63;;
45944;SDS011;31655;48.972;10.686;2022-08-21T04:52:59;13.63;;;10.45;;
45944;SDS011;31655;48.972;10.686;2022-08-21T04:55:25;15.63;;;11.40;;
45944;SDS011;31655;48.972;10.686;2022-08-21T04:57:52;13.57;;;11.85;;
45944;SDS011;31655;48.972;10.686;2022-08-21T05:00:19;17.30;;;11.20;;
45944;SDS011;31655;48.972;10.686;2022-08-21T05:02:46;16.15;;;12.30;;
45944;SDS011;31655;48.972;10.686;2022-08-21T05:05:14;15.05;;;10.38;;
45944;SDS011;31655;48.972;10.686;2022-08-21T05:07:40;12.45;;;10.30;;
45944;SDS011;31655;48.972;10.686;2022-08-21T05:10:09;14.23;;;11.00;;
45944;SDS011;31655;48.972;10.686;2022-08-21T05:12:35;19.33;;;11.70;;
45944;SDS011;31655;48.972;10.686;2022-08-21T05:15:01;13.75;;;10.60;;
45944;SDS011;31655;48.972;10.686;2022-08-21T05:17:28;11.98;;;10.18;;
45944;SDS011;31655;48.972;10.686;2022-08-21T05:19:54;15.50;;;12.32;;
45944;SDS011;31655;48.972;10.686;2022-08-21T05:22:20;7.78;;;7.03;;
45944;SDS011;31655;48.972;10.686;2022-08-21T05:24:47;5.38;;;4.88;;
45944;SDS011;31655;48.972;10.686;2022-08-21T05:27:12;6.70;;;4.88;;
45944;SDS011;31655;48.972;10.686;2022-08-21T05:29:38;7.90;;;3.70;;
45944;SDS011;31655;48.972;10.686;2022-08-21T05:32:10;4.78;;;3.80;;
45944;SDS011;31655;48.972;10.686;2022-08-21T05:34:37;6.07;;;4.20;;
45944;SDS011;31655;48.972;10.686;2022-08-21T05:37:03;6.25;;;3.00;;
45944;SDS011;31655;48.972;10.686;2022-08-21T05:39:29;3.88;;;3.30;;
45944;SDS011;31655;48.972;10.686;2022-08-21T05:41:55;3.10;;;2.80;;
45944;SDS011;31655;48.972;10.686;2022-08-21T05:44:21;3.17;;;2.63;;
45944;SDS011;31655;48.972;10.686;2022-08-21T05:46:46;2.92;;;2.40;;
45944;SDS011;31655;48.972;10.686;2022-08-21T05:49:12;4.00;;;2.78;;
45944;SDS011;31655;48.972;10.686;2022-08-21T05:51:39;3.03;;;2.72;;
45944;SDS011;31655;48.972;10.686;2022-08-21T05:54:05;4.70;;;3.67;;
45944;SDS011;31655;48.972;10.686;2022-08-21T05:56:31;6.80;;;3.60;;
45944;SDS011;31655;48.972;10.686;2022-08-21T05:58:57;5.43;;;4.43;;
45944;SDS011;31655;48.972;10.686;2022-08-21T06:01:23;5.90;;;4.50;;
45944;SDS011;31655;48.972;10.686;2022-08-21T06:03:49;6.60;;;4.38;;
45944;SDS011;31655;48.972;10.686;2022-08-21T06:06:14;3.90;;;3.30;;
45944;SDS011;31655;48.972;10.686;2022-08-21T06:08:40;5.93;;;4.90;;
45944;SDS011;31655;48.972;10.686;2022-08-21T06:11:07;8.18;;;5.45;;
45944;SDS011;31655;48.972;10.686;2022-08-21T06:13:33;5.05;;;4.53;;
45944;SDS011;31655;48.972;10.686;2022-08-21T06:16:17;8.20;;;5.65;;
45944;SDS011;31655;48.972;10.686;2022-08-21T06:18:44;7.20;;;4.80;;
45944;SDS011;31655;48.972;10.686;2022-08-21T06:21:10;6.95;;;4.97;;
45944;SDS011;31655;48.972;10.686;2022-08-21T06:23:38;7.50;;;4.65;;
45944;SDS011;31655;48.972;10.686;2022-08-21T06:26:04;5.90;;;4.80;;
45944;SDS011;31655;48.972;10.686;2022-08-21T06:28:32;6.43;;;5.20;;
45944;SDS011;31655;48.972;10.686;2022-08-21T06:30:58;6.72;;;4.38;;
45944;SDS011;31655;48.972;10.686;2022-08-21T06:33:24;7.85;;;5.68;;
45944;SDS011;31655;48.972;10.686;2022-08-21T06:35:50;5.45;;;4.80;;
45944;SDS011;31655;48.972;10.686;2022-08-21T06:38:16;6.25;;;5.05;;
45944;SDS011;31655;48.972;10.686;2022-08-21T06:40:41;6.20;;;5.57;;
45944;SDS011;31655;48.972;10.686;2022-08-21T06:43:09;7.20;;;5.80;;
45944;SDS011;31655;48.972;10.686;2022-08-21T06:45:36;6.47;;;4.40;;
45944;SDS011;31655;48.972;10.686;2022-08-21T06:48:02;5.70;;;5.13;;
45944;SDS011;31655;48.972;10.686;2022-08-21T06:50:29;6.38;;;5.68;;
45944;SDS011;31655;48.972;10.686;2022-08-21T06:53:14;8.38;;;5.82;;
45944;SDS011;31655;48.972;10.686;2022-08-21T06:55:42;10.45;;;5.53;;
45944;SDS011;31655;48.972;10.686;2022-08-21T06:58:08;8.07;;;6.03;;
45944;SDS011;31655;48.972;10.686;2022-08-21T07:00:35;7.30;;;5.80;;
45944;SDS011;31655;48.972;10.686;2022-08-21T07:03:04;7.22;;;5.63;;
45944;SDS011;31655;48.972;10.686;2022-08-21T07:05:29;7.38;;;5.18;;
45944;SDS011;31655;48.972;10.686;2022-08-21T07:07:55;10.27;;;5.55;;
45944;SDS011;31655;48.972;10.686;2022-08-21T07:10:22;7.13;;;5.82;;
45944;SDS011;31655;48.972;10.686;2022-08-21T07:12:49;7.78;;;5.95;;
45944;SDS011;31655;48.972;10.686;2022-08-21T07:15:15;8.07;;;6.00;;
45944;SDS011;31655;48.972;10.686;2022-08-21T07:17:41;9.43;;;6.03;;
45944;SDS011;31655;48.972;10.686;2022-08-21T07:20:06;5.57;;;5.05;;
45944;SDS011;31655;48.972;10.686;2022-08-21T07:22:32;6.85;;;5.82;;
45944;SDS011;31655;48.972;10.686;2022-08-21T07:25:00;9.77;;;5.55;;
45944;SDS011;31655;48.972;10.686;2022-08-21T07:27:25;8.70;;;4.97;;
45944;SDS011;31655;48.972;10.686;2022-08-21T07:29:52;7.13;;;6.07;;
45944;SDS011;31655;48.972;10.686;2022-08-21T07:32:17;5.65;;;5.15;;
45944;SDS011;31655;48.972;10.686;2022-08-21T07:34:43;7.05;;;5.82;;
45944;SDS011;31655;48.972;10.686;2022-08-21T07:37:09;9.75;;;6.05;;
45944;SDS011;31655;48.972;10.686;2022-08-21T07:39:35;8.07;;;6.03;;
45944;SDS011;31655;48.972;10.686;2022-08-21T07:42:01;7.50;;;6.55;;
45944;SDS011;31655;48.972;10.686;2022-08-21T07:44:28;11.20;;;6.65;;
45944;SDS011;31655;48.972;10.686;2022-08-21T07:46:53;10.13;;;6.18;;
45944;SDS011;31655;48.972;10.686;2022-08-21T07:49:19;9.30;;;5.63;;
45944;SDS011;31655;48.972;10.686;2022-08-21T07:51:44;9.85;;;7.28;;
45944;SDS011;31655;48.972;10.686;2022-08-21T07:54:10;8.07;;;7.30;;
45944;SDS011;31655;48.972;10.686;2022-08-21T07:56:36;9.30;;;7.07;;
45944;SDS011;31655;48.972;10.686;2022-08-21T07:59:01;10.23;;;6.53;;
45944;SDS011;31655;48.972;10.686;2022-08-21T08:01:27;15.73;;;7.30;;
45944;SDS011;31655;48.972;10.686;2022-08-21T08:03:53;9.88;;;7.95;;
45944;SDS011;31655;48.972;10.686;2022-08-21T08:06:19;11.27;;;7.65;;
45944;SDS011;31655;48.972;10.686;2022-08-21T08:08:45;8.07;;;7.07;;
45944;SDS011;31655;48.972;10.686;2022-08-21T08:11:11;9.27;;;6.68;;
45944;SDS011;31655;48.972;10.686;2022-08-21T08:13:40;9.50;;;7.38;;
45944;SDS011;31655;48.972;10.686;2022-08-21T08:16:07;13.20;;;6.95;;
45944;SDS011;31655;48.972;10.686;2022-08-21T08:18:33;8.35;;;7.55;;
45944;SDS011;31655;48.972;10.686;2022-08-21T08:20:58;7.88;;;5.88;;
45944;SDS011;31655;48.972;10.686;2022-08-21T08:23:24;8.65;;;7.85;;
45944;SDS011;31655;48.972;10.686;2022-08-21T08:25:50;8.57;;;6.85;;
45944;SDS011;31655;48.972;10.686;2022-08-21T08:28:15;9.15;;;6.45;;
45944;SDS011;31655;48.972;10.686;2022-08-21T08:30:41;11.55;;;8.13;;
45944;SDS011;31655;48.972;10.686;2022-08-21T08:33:07;8.02;;;6.70;;
45944;SDS011;31655;48.972;10.686;2022-08-21T08:35:33;6.50;;;5.90;;
45944;SDS011;31655;48.972;10.686;2022-08-21T08:37:59;8.73;;;7.85;;
45944;SDS011;31655;48.972;10.686;2022-08-21T08:40:28;8.13;;;7.15;;
45944;SDS011;31655;48.972;10.686;2022-08-21T08:43:10;7.82;;;7.03;;
45944;SDS011;31655;48.972;10.686;2022-08-21T08:45:40;10.40;;;8.07;;
45944;SDS011;31655;48.972;10.686;2022-08-21T08:48:26;7.55;;;6.65;;
45944;SDS011;31655;48.972;10.686;2022-08-21T08:51:23;9.35;;;8.40;;
45944;SDS011;31655;48.972;10.686;2022-08-21T08:54:02;9.02;;;8.13;;
45944;SDS011;31655;48.972;10.686;2022-08-21T08:56:33;10.10;;;7.53;;
45944;SDS011;31655;48.972;10.686;2022-08-21T08:59:07;9.02;;;8.13;;
45944;SDS011;31655;48.972;10.686;2022-08-21T09:01:38;9.05;;;8.15;;
45944;SDS011;31655;48.972;10.686;2022-08-21T09:04:04;7.35;;;6.53;;
45944;SDS011;31655;48.972;10.686;2022-08-21T09:06:36;7.18;;;6.45;;
45944;SDS011;31655;48.972;10.686;2022-08-21T09:12:09;7.93;;;7.13;;
45944;SDS011;31655;48.972;10.686;2022-08-21T09:15:06;7.50;;;6.63;;
45944;SDS011;31655;48.972;10.686;2022-08-21T09:23:17;6.38;;;5.70;;
45944;SDS011;31655;48.972;10.686;2022-08-21T09:28:39;7.07;;;6.22;;
45944;SDS011;31655;48.972;10.686;2022-08-21T09:31:25;8.68;;;6.22;;
45944;SDS011;31655;48.972;10.686;2022-08-21T09:33:58;7.38;;;6.65;;
45944;SDS011;31655;48.972;10.686;2022-08-21T09:38:58;7.40;;;5.95;;
45944;SDS011;31655;48.972;10.686;2022-08-21T09:41:27;7.03;;;5.85;;
45944;SDS011;31655;48.972;10.686;2022-08-21T09:43:56;6.35;;;5.75;;
45944;SDS011;31655;48.972;10.686;2022-08-21T09:46:23;6.20;;;5.60;;
45944;SDS011;31655;48.972;10.686;2022-08-21T09:48:51;7.10;;;5.38;;
45944;SDS011;31655;48.972;10.686;2022-08-21T09:51:36;8.55;;;6.60;;
45944;SDS011;31655;48.972;10.686;2022-08-21T09:56:33;9.73;;;5.82;;
45944;SDS011;31655;48.972;10.686;2022-08-21T09:59:31;6.60;;;5.90;;
45944;SDS011;31655;48.972;10.686;2022-08-21T10:02:03;7.32;;;5.88;;
45944;SDS011;31655;48.972;10.686;2022-08-21T10:04:50;6.97;;;4.93;;
45944;SDS011;31655;48.972;10.686;2022-08-21T10:07:20;6.70;;;5.30;;
45944;SDS011;31655;48.972;10.686;2022-08-21T10:09:57;9.35;;;7.07;;
45944;SDS011;31655;48.972;10.686;2022-08-21T10:12:31;8.18;;;5.72;;
45944;SDS011;31655;48.972;10.686;2022-08-21T10:15:08;6.95;;;5.97;;
45944;SDS011;31655;48.972;10.686;2022-08-21T10:17:52;6.82;;;5.65;;
45944;SDS011;31655;48.972;10.686;2022-08-21T10:20:46;6.00;;;5.30;;
45944;SDS011;31655;48.972;10.686;2022-08-21T10:26:10;6.57;;;4.85;;
45944;SDS011;31655;48.972;10.686;2022-08-21T10:32:05;8.48;;;5.30;;
45944;SDS011;31655;48.972;10.686;2022-08-21T10:48:04;6.28;;;4.88;;
45944;SDS011;31655;48.972;10.686;2022-08-21T10:56:01;9.55;;;5.68;;
45944;SDS011;31655;48.972;10.686;2022-08-21T10:58:37;5.45;;;4.85;;
45944;SDS011;31655;48.972;10.686;2022-08-21T11:01:13;4.97;;;4.30;;
45944;SDS011;31655;48.972;10.686;2022-08-21T11:03:44;7.10;;;4.28;;
45944;SDS011;31655;48.972;10.686;2022-08-21T11:06:24;5.93;;;4.53;;
45944;SDS011;31655;48.972;10.686;2022-08-21T11:08:57;8.80;;;5.65;;
45944;SDS011;31655;48.972;10.686;2022-08-21T11:11:39;16.38;;;9.52;;
45944;SDS011;31655;48.972;10.686;2022-08-21T11:14:30;5.85;;;4.93;;
45944;SDS011;31655;48.972;10.686;2022-08-21T11:17:10;6.43;;;4.75;;
45944;SDS011;31655;48.972;10.686;2022-08-21T11:19:48;7.13;;;4.13;;
45944;SDS011;31655;48.972;10.686;2022-08-21T11:22:24;8.90;;;5.80;;
45944;SDS011;31655;48.972;10.686;2022-08-21T11:24:59;5.88;;;4.20;;
45944;SDS011;31655;48.972;10.686;2022-08-21T11:27:44;7.40;;;5.55;;
45944;SDS011;31655;48.972;10.686;2022-08-21T11:30:14;5.20;;;3.78;;
45944;SDS011;31655;48.972;10.686;2022-08-21T11:38:13;7.35;;;4.18;;
45944;SDS011;31655;48.972;10.686;2022-08-21T11:43:45;4.57;;;4.18;;
45944;SDS011;31655;48.972;10.686;2022-08-21T11:46:16;4.55;;;4.15;;
45944;SDS011;31655;48.972;10.686;2022-08-21T11:51:53;9.50;;;4.07;;
45944;SDS011;31655;48.972;10.686;2022-08-21T11:54:41;6.93;;;4.32;;
45944;SDS011;31655;48.972;10.686;2022-08-21T11:57:24;5.18;;;3.95;;
45944;SDS011;31655;48.972;10.686;2022-08-21T12:02:50;3.88;;;3.58;;
45944;SDS011;31655;48.972;10.686;2022-08-21T12:05:32;5.65;;;3.90;;
45944;SDS011;31655;48.972;10.686;2022-08-21T12:08:03;4.72;;;3.78;;
45944;SDS011;31655;48.972;10.686;2022-08-21T12:10:34;8.80;;;4.30;;
45944;SDS011;31655;48.972;10.686;2022-08-21T12:13:28;4.97;;;4.15;;
45944;SDS011;31655;48.972;10.686;2022-08-21T12:18:35;7.95;;;4.28;;
45944;SDS011;31655;48.972;10.686;2022-08-21T12:21:25;3.83;;;3.45;;
45944;SDS011;31655;48.972;10.686;2022-08-21T12:24:16;5.43;;;4.32;;
45944;SDS011;31655;48.972;10.686;2022-08-21T12:26:52;7.50;;;4.35;;
45944;SDS011;31655;48.972;10.686;2022-08-21T12:29:25;5.53;;;3.90;;
45944;SDS011;31655;48.972;10.686;2022-08-21T12:31:53;19.00;;;9.73;;
45944;SDS011;31655;48.972;10.686;2022-08-21T12:34:22;5.18;;;4.10;;
45944;SDS011;31655;48.972;10.686;2022-08-21T12:36:57;3.70;;;3.40;;
45944;SDS011;31655;48.972;10.686;2022-08-21T12:39:33;5.75;;;4.20;;
45944;SDS011;31655;48.972;10.686;2022-08-21T12:42:11;5.88;;;3.78;;
45944;SDS011;31655;48.972;10.686;2022-08-21T12:44:43;5.95;;;3.97;;
45944;SDS011;31655;48.972;10.686;2022-08-21T12:47:31;6.32;;;4.97;;
45944;SDS011;31655;48.972;10.686;2022-08-21T12:50:04;5.35;;;3.75;;
45944;SDS011;31655;48.972;10.686;2022-08-21T12:52:38;5.30;;;3.58;;
45944;SDS011;31655;48.972;10.686;2022-08-21T12:55:28;6.45;;;3.28;;
45944;SDS011;31655;48.972;10.686;2022-08-21T12:57:55;5.78;;;4.15;;
45944;SDS011;31655;48.972;10.686;2022-08-21T13:00:22;5.10;;;3.35;;
45944;SDS011;31655;48.972;10.686;2022-08-21T13:02:50;4.45;;;3.42;;
45944;SDS011;31655;48.972;10.686;2022-08-21T13:05:23;7.07;;;3.60;;
45944;SDS011;31655;48.972;10.686;2022-08-21T13:07:58;6.32;;;3.78;;
45944;SDS011;31655;48.972;10.686;2022-08-21T13:10:30;5.88;;;3.83;;
45944;SDS011;31655;48.972;10.686;2022-08-21T13:12:58;11.80;;;4.10;;
45944;SDS011;31655;48.972;10.686;2022-08-21T13:15:27;4.60;;;3.47;;
45944;SDS011;31655;48.972;10.686;2022-08-21T13:17:56;5.30;;;3.45;;
45944;SDS011;31655;48.972;10.686;2022-08-21T13:20:29;4.70;;;3.90;;
45944;SDS011;31655;48.972;10.686;2022-08-21T13:22:56;4.55;;;4.00;;
45944;SDS011;31655;48.972;10.686;2022-08-21T13:25:25;5.85;;;3.95;;
45944;SDS011;31655;48.972;10.686;2022-08-21T13:28:01;4.25;;;3.38;;
45944;SDS011;31655;48.972;10.686;2022-08-21T13:30:30;5.82;;;3.72;;
45944;SDS011;31655;48.972;10.686;2022-08-21T13:32:58;7.28;;;3.53;;
45944;SDS011;31655;48.972;10.686;2022-08-21T13:35:28;3.40;;;3.10;;
45944;SDS011;31655;48.972;10.686;2022-08-21T13:38:00;6.72;;;4.15;;
45944;SDS011;31655;48.972;10.686;2022-08-21T13:40:45;7.32;;;3.90;;
45944;SDS011;31655;48.972;10.686;2022-08-21T13:43:17;4.88;;;3.13;;
45944;SDS011;31655;48.972;10.686;2022-08-21T13:45:48;3.53;;;3.22;;
45944;SDS011;31655;48.972;10.686;2022-08-21T13:48:15;4.13;;;3.35;;
45944;SDS011;31655;48.972;10.686;2022-08-21T13:50:41;4.03;;;2.78;;
45944;SDS011;31655;48.972;10.686;2022-08-21T13:53:19;5.30;;;3.47;;
45944;SDS011;31655;48.972;10.686;2022-08-21T13:55:48;5.63;;;3.95;;
45944;SDS011;31655;48.972;10.686;2022-08-21T13:58:23;3.85;;;3.40;;
45944;SDS011;31655;48.972;10.686;2022-08-21T14:00:58;3.72;;;3.25;;
45944;SDS011;31655;48.972;10.686;2022-08-21T14:03:35;3.42;;;3.08;;
45944;SDS011;31655;48.972;10.686;2022-08-21T14:06:39;3.78;;;2.90;;
45944;SDS011;31655;48.972;10.686;2022-08-21T14:09:02;4.10;;;3.30;;
45944;SDS011;31655;48.972;10.686;2022-08-21T14:11:34;4.25;;;3.30;;
45944;SDS011;31655;48.972;10.686;2022-08-21T14:14:02;4.03;;;3.63;;
45944;SDS011;31655;48.972;10.686;2022-08-21T14:16:41;2.88;;;2.67;;
45944;SDS011;31655;48.972;10.686;2022-08-21T14:19:11;4.18;;;3.15;;
45944;SDS011;31655;48.972;10.686;2022-08-21T14:21:44;3.83;;;3.50;;
45944;SDS011;31655;48.972;10.686;2022-08-21T14:24:29;6.43;;;3.10;;
45944;SDS011;31655;48.972;10.686;2022-08-21T14:27:03;5.75;;;3.45;;
45944;SDS011;31655;48.972;10.686;2022-08-21T14:32:22;2.85;;;2.53;;
45944;SDS011;31655;48.972;10.686;2022-08-21T14:34:52;3.90;;;2.95;;
45944;SDS011;31655;48.972;10.686;2022-08-21T14:37:18;4.55;;;2.85;;
45944;SDS011;31655;48.972;10.686;2022-08-21T14:39:43;5.07;;;3.17;;
45944;SDS011;31655;48.972;10.686;2022-08-21T14:42:10;3.35;;;2.72;;
45944;SDS011;31655;48.972;10.686;2022-08-21T14:44:36;3.67;;;3.35;;
45944;SDS011;31655;48.972;10.686;2022-08-21T14:47:02;4.10;;;3.38;;
45944;SDS011;31655;48.972;10.686;2022-08-21T14:49:28;4.18;;;3.13;;
45944;SDS011;31655;48.972;10.686;2022-08-21T14:51:55;4.53;;;2.97;;
45944;SDS011;31655;48.972;10.686;2022-08-21T14:54:26;3.33;;;2.97;;
45944;SDS011;31655;48.972;10.686;2022-08-21T14:56:53;2.58;;;2.33;;
45944;SDS011;31655;48.972;10.686;2022-08-21T14:59:19;3.40;;;3.05;;
45944;SDS011;31655;48.972;10.686;2022-08-21T15:01:46;5.18;;;3.25;;
45944;SDS011;31655;48.972;10.686;2022-08-21T15:04:12;4.85;;;2.88;;
45944;SDS011;31655;48.972;10.686;2022-08-21T15:06:38;6.32;;;3.50;;
45944;SDS011;31655;48.972;10.686;2022-08-21T15:09:04;3.10;;;2.80;;
45944;SDS011;31655;48.972;10.686;2022-08-21T15:11:31;4.28;;;2.95;;
45944;SDS011;31655;48.972;10.686;2022-08-21T15:13:59;4.00;;;2.90;;
45944;SDS011;31655;48.972;10.686;2022-08-21T15:16:27;3.70;;;2.95;;
45944;SDS011;31655;48.972;10.686;2022-08-21T15:18:55;3.70;;;3.10;;
45944;SDS011;31655;48.972;10.686;2022-08-21T15:21:21;4.75;;;2.78;;
45944;SDS011;31655;48.972;10.686;2022-08-21T15:23:47;2.83;;;2.42;;
45944;SDS011;31655;48.972;10.686;2022-08-21T15:26:12;4.63;;;2.30;;
45944;SDS011;31655;48.972;10.686;2022-08-21T15:28:39;4.82;;;2.97;;
45944;SDS011;31655;48.972;10.686;2022-08-21T15:31:05;5.93;;;2.92;;
45944;SDS011;31655;48.972;10.686;2022-08-21T15:33:31;4.05;;;2.72;;
45944;SDS011;31655;48.972;10.686;2022-08-21T15:35:57;3.10;;;2.55;;
45944;SDS011;31655;48.972;10.686;2022-08-21T15:38:23;3.13;;;2.50;;
45944;SDS011;31655;48.972;10.686;2022-08-21T15:40:49;3.17;;;2.53;;
45944;SDS011;31655;48.972;10.686;2022-08-21T15:43:21;2.58;;;2.20;;